Time;durP1;ratioP1;P1;durP2;ratioP2;P2;SDS_P1;SDS_P2;PMS_P1;PMS_P2;Temp;Humidity;BMP_temperature;BMP_pressure;BME280_temperature;BME280_humidity;BME280_pressure;Samples;Min_cycle;Max_cycle;Signal;HPM_P1;HPM_P2
2024/01/18 00:01:01;;;;;;;;;;;;;;;20.28;37.68;98380.09;2063149;28;6288;-66
2024/01/18 00:02:03;;;;;;;;;;;;;;;20.27;37.75;98379.38;2060596;28;1698;-65
2024/01/18 00:03:04;;;;;;;;;;;;;;;20.27;37.73;98384.38;2062676;28;1643;-65
2024/01/18 00:04:06;;;;;;;;;;;;;;;20.27;37.78;98387.25;2060719;28;1662;-66
2024/01/18 00:05:08;;;;;;;;;;;;;;;20.26;37.82;98388.69;2063672;28;2157;-66
2024/01/18 00:06:09;;;;;;;;;;;;;;;20.26;37.74;98382.97;2061269;28;1901;-65
2024/01/18 00:07:11;;;;;;;;;;;;;;;20.25;37.85;98382.25;2059608;28;2092;-66
2024/01/18 00:08:12;;;;;;;;;;;;;;;20.25;37.74;98384.41;2062725;28;2049;-65
2024/01/18 00:09:14;;;;;;;;;;;;;;;20.25;37.84;98388.00;2060950;28;2003;-66
2024/01/18 00:10:16;;;;;;;;;;;;;;;20.24;37.78;98391.56;2064257;28;1715;-65
2024/01/18 00:11:17;;;;;;;;;;;;;;;20.24;37.75;98388.69;2061306;28;2141;-66
2024/01/18 00:12:18;;;;;;;;;;;;;;;20.24;37.79;98394.44;2062403;28;1915;-66
2024/01/18 00:13:20;;;;;;;;;;;;;;;20.24;37.83;98388.69;2062523;28;2126;-66
2024/01/18 00:14:21;;;;;;;;;;;;;;;20.23;37.67;98390.84;2059736;28;1993;-65
2024/01/18 00:15:23;;;;;;;;;;;;;;;20.23;37.76;98395.88;2060772;28;2057;-65
2024/01/18 00:16:25;;;;;;;;;;;;;;;20.23;37.76;98393.00;2063871;28;1881;-65
2024/01/18 00:17:26;;;;;;;;;;;;;;;20.22;37.63;98400.16;2059810;28;1697;-65
2024/01/18 00:18:28;;;;;;;;;;;;;;;20.23;37.84;98395.88;2059893;28;2025;-66
2024/01/18 00:19:29;;;;;;;;;;;;;;;20.22;37.70;98397.28;2063569;28;1779;-65
2024/01/18 00:20:31;;;;;;;;;;;;;;;20.23;37.70;98395.88;2060675;28;1881;-65
2024/01/18 00:21:33;;;;;;;;;;;;;;;20.23;37.76;98396.59;2060661;28;1901;-65
2024/01/18 00:22:34;;;;;;;;;;;;;;;20.22;37.79;98392.25;2060554;28;1916;-65
2024/01/18 00:23:36;;;;;;;;;;;;;;;20.23;37.74;98401.63;2066954;28;2171;-66
2024/01/18 00:24:37;;;;;;;;;;;;;;;20.23;37.81;98407.38;2063482;28;2044;-66
2024/01/18 00:25:38;;;;;;;;;;;;;;;20.23;37.79;98413.81;2064120;28;1998;-65
2024/01/18 00:26:40;;;;;;;;;;;;;;;20.25;37.66;98421.75;2061636;28;1612;-66
2024/01/18 00:27:41;;;;;;;;;;;;;;;20.25;37.79;98421.75;2062996;28;1910;-65
2024/01/18 00:28:43;;;;;;;;;;;;;;;20.26;37.81;98417.44;2061904;28;2412;-66
2024/01/18 00:29:44;;;;;;;;;;;;;;;20.26;37.79;98423.19;2062579;28;1928;-65
2024/01/18 00:30:46;;;;;;;;;;;;;;;20.26;37.68;98423.19;2058969;28;5989;-66
2024/01/18 00:31:47;;;;;;;;;;;;;;;20.26;37.73;98418.16;2061568;28;2093;-66
2024/01/18 00:32:48;;;;;;;;;;;;;;;20.27;37.74;98421.75;2062376;28;1612;-65
2024/01/18 00:33:50;;;;;;;;;;;;;;;20.25;37.68;98428.22;2061052;28;1591;-65
2024/01/18 00:34:51;;;;;;;;;;;;;;;20.26;37.78;98428.94;2061725;28;2093;-65
2024/01/18 00:35:53;;;;;;;;;;;;;;;20.26;37.70;98441.13;2063391;28;2256;-66
2024/01/18 00:36:54;;;;;;;;;;;;;;;20.26;37.66;98434.69;2058158;28;1587;-66
2024/01/18 00:37:56;;;;;;;;;;;;;;;20.26;37.71;98437.56;2062146;28;1665;-65
2024/01/18 00:38:57;;;;;;;;;;;;;;;20.26;37.71;98446.16;2058724;28;2220;-66
2024/01/18 00:39:59;;;;;;;;;;;;;;;20.25;37.92;98448.31;2060571;28;2104;-66
2024/01/18 00:41:00;;;;;;;;;;;;;;;20.24;37.70;98455.50;2063262;28;1586;-65
2024/01/18 00:42:02;;;;;;;;;;;;;;;20.25;37.86;98459.81;2061200;28;1881;-66
2024/01/18 00:43:05;;;;;;;;;;;;;;;20.24;37.90;98461.22;2058168;28;1856;-66
2024/01/18 00:44:06;;;;;;;;;;;;;;;20.24;37.80;98466.25;2060594;28;2074;-65
2024/01/18 00:45:08;;;;;;;;;;;;;;;20.23;37.86;98467.69;2061769;28;2422;-66
2024/01/18 00:46:09;;;;;;;;;;;;;;;20.23;37.82;98470.56;2059770;28;2399;-66
2024/01/18 00:47:10;;;;;;;;;;;;;;;20.23;37.81;98470.56;2060455;28;1985;-66
2024/01/18 00:48:14;;;;;;;;;;;;;;;20.23;37.76;98470.56;2056288;28;2295;-66
2024/01/18 00:49:15;;;;;;;;;;;;;;;20.22;37.89;98475.59;2059141;28;2014;-66
2024/01/18 00:50:17;;;;;;;;;;;;;;;20.22;37.93;98474.88;2059412;28;1667;-66
2024/01/18 00:51:18;;;;;;;;;;;;;;;20.21;37.89;98468.41;2062851;28;1655;-65
2024/01/18 00:52:20;;;;;;;;;;;;;;;20.21;37.74;98471.28;2058576;28;1714;-66
2024/01/18 00:53:21;;;;;;;;;;;;;;;20.20;37.85;98471.97;2060454;28;2105;-66
2024/01/18 00:54:26;;;;;;;;;;;;;;;20.20;37.88;98489.94;2059480;28;1852;-65
2024/01/18 00:55:27;;;;;;;;;;;;;;;20.21;37.89;98479.19;2061406;28;2127;-65
2024/01/18 00:56:28;;;;;;;;;;;;;;;20.20;37.73;98489.22;2059283;28;2112;-66
2024/01/18 00:57:30;;;;;;;;;;;;;;;20.20;37.80;98492.81;2058825;28;1711;-65
2024/01/18 00:58:31;;;;;;;;;;;;;;;20.20;37.85;98497.81;2060472;28;2201;-66
2024/01/18 00:59:33;;;;;;;;;;;;;;;20.21;37.89;98496.41;2059421;28;1884;-65
2024/01/18 01:00:34;;;;;;;;;;;;;;;20.21;37.75;98491.38;2058423;28;6113;-65
2024/01/18 01:01:36;;;;;;;;;;;;;;;20.20;37.76;98495.69;2062625;28;1552;-66
2024/01/18 01:02:37;;;;;;;;;;;;;;;20.21;37.79;98497.13;2061593;28;1553;-65
2024/01/18 01:03:39;;;;;;;;;;;;;;;20.21;37.95;98496.41;2061318;28;1599;-66
2024/01/18 01:04:41;;;;;;;;;;;;;;;20.21;37.76;98502.16;2062335;28;1479;-66
2024/01/18 01:05:42;;;;;;;;;;;;;;;20.22;37.84;98503.59;2059962;28;2082;-66
2024/01/18 01:06:43;;;;;;;;;;;;;;;20.21;37.80;98513.66;2058901;28;1797;-66
2024/01/18 01:07:45;;;;;;;;;;;;;;;20.22;37.79;98512.22;2064017;28;2120;-65
2024/01/18 01:08:46;;;;;;;;;;;;;;;20.23;37.78;98516.56;2058346;28;1678;-65
2024/01/18 01:09:48;;;;;;;;;;;;;;;20.23;37.93;98510.81;2062537;28;1723;-66
2024/01/18 01:10:49;;;;;;;;;;;;;;;20.22;37.74;98521.56;2060745;28;2220;-65
2024/01/18 01:11:51;;;;;;;;;;;;;;;20.24;37.74;98517.97;2060257;28;1663;-66
2024/01/18 01:12:53;;;;;;;;;;;;;;;20.23;37.72;98511.53;2061295;28;1759;-66
2024/01/18 01:13:55;;;;;;;;;;;;;;;20.24;37.82;98512.97;2061929;28;2057;-67
2024/01/18 01:14:56;;;;;;;;;;;;;;;20.24;37.72;98512.97;2061947;28;1634;-65
2024/01/18 01:15:58;;;;;;;;;;;;;;;20.24;37.88;98512.25;2060978;28;2259;-65
2024/01/18 01:16:59;;;;;;;;;;;;;;;20.23;37.85;98525.16;2061922;28;1710;-65
2024/01/18 01:18:01;;;;;;;;;;;;;;;20.23;37.78;98528.03;2063575;28;1536;-64
2024/01/18 01:19:02;;;;;;;;;;;;;;;20.22;37.84;98512.94;2059048;28;1647;-65
2024/01/18 01:20:04;;;;;;;;;;;;;;;20.22;37.79;98533.03;2057288;28;2129;-65
2024/01/18 01:21:08;;;;;;;;;;;;;;;20.23;37.82;98522.31;2061805;28;1660;-66
2024/01/18 01:22:09;;;;;;;;;;;;;;;20.22;37.89;98521.56;2058867;28;1774;-66
2024/01/18 01:23:11;;;;;;;;;;;;;;;20.21;37.85;98519.41;2056538;28;2007;-66
2024/01/18 01:24:12;;;;;;;;;;;;;;;20.22;37.93;98524.44;2062628;28;2317;-66
2024/01/18 01:25:14;;;;;;;;;;;;;;;20.21;37.92;98519.41;2058455;28;2058;-66
2024/01/18 01:26:16;;;;;;;;;;;;;;;20.20;37.76;98518.69;2062384;28;1754;-66
2024/01/18 01:27:17;;;;;;;;;;;;;;;20.20;37.80;98523.69;2058234;28;2069;-65
2024/01/18 01:28:19;;;;;;;;;;;;;;;20.20;38.02;98520.81;2060755;28;2343;-65
2024/01/18 01:29:20;;;;;;;;;;;;;;;20.18;37.98;98521.53;2061092;28;2131;-66
2024/01/18 01:30:22;;;;;;;;;;;;;;;20.20;37.82;98523.69;2058702;28;6158;-66
2024/01/18 01:31:23;;;;;;;;;;;;;;;20.19;37.88;98522.25;2059222;28;2066;-66
2024/01/18 01:32:25;;;;;;;;;;;;;;;20.19;37.84;98522.25;2061083;28;1723;-66
2024/01/18 01:33:28;;;;;;;;;;;;;;;20.19;37.97;98528.00;2057945;28;1682;-66
2024/01/18 01:34:29;;;;;;;;;;;;;;;20.18;37.91;98524.41;2059936;28;1671;-65
2024/01/18 01:35:31;;;;;;;;;;;;;;;20.18;37.73;98538.03;2059190;28;2113;-65
2024/01/18 01:36:32;;;;;;;;;;;;;;;20.18;37.75;98533.03;2060500;28;1805;-66
2024/01/18 01:37:34;;;;;;;;;;;;;;;20.18;37.77;98538.03;2059155;28;1853;-65
2024/01/18 01:38:35;;;;;;;;;;;;;;;20.17;37.72;98537.31;2061130;28;2025;-65
2024/01/18 01:39:36;;;;;;;;;;;;;;;20.17;37.82;98537.31;2061093;28;2018;-66
2024/01/18 01:40:38;;;;;;;;;;;;;;;20.16;37.67;98541.63;2062397;28;2332;-66
2024/01/18 01:41:39;;;;;;;;;;;;;;;20.17;37.83;98548.09;2060315;28;1850;-66
2024/01/18 01:42:41;;;;;;;;;;;;;;;20.17;37.84;98545.22;2062213;28;2062;-66
2024/01/18 01:43:58;;;;;;;;;;;;;;;20.17;37.74;98554.56;2062322;28;2252;-66
2024/01/18 01:44:59;;;;;;;;;;;;;;;20.16;37.90;98558.88;2057256;28;2026;-66
2024/01/18 01:46:01;;;;;;;;;;;;;;;20.17;37.71;98559.59;2058872;28;2185;-66
2024/01/18 01:47:02;;;;;;;;;;;;;;;20.17;37.70;98556.72;2059705;28;1650;-65
2024/01/18 01:48:04;;;;;;;;;;;;;;;20.17;37.75;98557.44;2056569;28;1965;-65
2024/01/18 01:49:05;;;;;;;;;;;;;;;20.18;37.81;98556.00;2060903;28;2125;-65
2024/01/18 01:50:08;;;;;;;;;;;;;;;20.19;37.78;98562.47;2052956;28;2047;-66
2024/01/18 01:51:10;;;;;;;;;;;;;;;20.19;37.70;98562.47;2053383;28;1944;-66
2024/01/18 01:52:11;;;;;;;;;;;;;;;20.18;37.86;98556.00;2054639;28;1657;-66
2024/01/18 01:53:12;;;;;;;;;;;;;;;20.20;37.66;98561.03;2057946;28;1619;-65
2024/01/18 01:54:20;;;;;;;;;;;;;;;20.20;37.80;98569.66;2060095;28;1542;-65
2024/01/18 01:55:22;;;;;;;;;;;;;;;20.21;37.87;98571.13;2057839;28;2136;-65
2024/01/18 01:56:23;;;;;;;;;;;;;;;20.21;37.83;98565.38;2060304;28;1670;-65
2024/01/18 01:57:24;;;;;;;;;;;;;;;20.20;37.75;98555.28;2059658;28;1595;-65
2024/01/18 01:58:26;;;;;;;;;;;;;;;20.20;37.74;98558.16;2058806;28;2156;-65
2024/01/18 01:59:28;;;;;;;;;;;;;;;20.20;37.87;98555.28;2056789;28;1756;-66
2024/01/18 02:00:29;;;;;;;;;;;;;;;20.19;37.90;98556.72;2060512;28;6248;-66
2024/01/18 02:01:31;;;;;;;;;;;;;;;20.19;37.82;98551.00;2062020;28;1790;-65
2024/01/18 02:02:32;;;;;;;;;;;;;;;20.18;37.74;98549.53;2057923;28;1785;-66
2024/01/18 02:03:34;;;;;;;;;;;;;;;20.19;37.89;98551.00;2058630;28;1594;-65
2024/01/18 02:04:35;;;;;;;;;;;;;;;20.18;37.78;98558.88;2057805;28;2073;-65
2024/01/18 02:05:36;;;;;;;;;;;;;;;20.19;37.90;98560.31;2060398;28;2151;-66
2024/01/18 02:06:39;;;;;;;;;;;;;;;20.18;37.90;98555.28;2061056;28;1802;-66
2024/01/18 02:07:40;;;;;;;;;;;;;;;20.17;37.83;98554.56;2059776;28;2033;-65
2024/01/18 02:08:42;;;;;;;;;;;;;;;20.17;37.84;98554.56;2060332;28;2058;-65
2024/01/18 02:09:43;;;;;;;;;;;;;;;20.16;37.86;98558.88;2057748;28;1838;-66
2024/01/18 02:10:45;;;;;;;;;;;;;;;20.17;37.87;98553.84;2060165;28;1809;-65
2024/01/18 02:11:46;;;;;;;;;;;;;;;20.16;37.81;98558.88;2058869;28;2105;-65
2024/01/18 02:12:48;;;;;;;;;;;;;;;20.16;37.81;98558.13;2061710;28;1936;-65
2024/01/18 02:13:49;;;;;;;;;;;;;;;20.17;37.81;98562.44;2058687;28;2167;-65
2024/01/18 02:14:51;;;;;;;;;;;;;;;20.15;37.83;98574.63;2055866;28;2089;-66
2024/01/18 02:15:52;;;;;;;;;;;;;;;20.15;37.90;98568.91;2051926;28;2078;-66
2024/01/18 02:16:53;;;;;;;;;;;;;;;20.15;37.79;98568.19;2053716;28;1532;-65
2024/01/18 02:17:55;;;;;;;;;;;;;;;20.14;37.77;98566.75;2061534;28;1536;-66
2024/01/18 02:18:56;;;;;;;;;;;;;;;20.15;37.89;98568.19;2059710;28;1845;-65
2024/01/18 02:19:58;;;;;;;;;;;;;;;20.15;37.91;98573.91;2061584;28;2030;-65
2024/01/18 02:20:59;;;;;;;;;;;;;;;20.14;37.76;98578.94;2060758;28;1563;-66
2024/01/18 02:22:01;;;;;;;;;;;;;;;20.14;37.76;98572.50;2059656;28;1853;-65
2024/01/18 02:23:03;;;;;;;;;;;;;;;20.13;37.90;98580.34;2057445;28;1650;-65
2024/01/18 02:24:10;;;;;;;;;;;;;;;20.14;37.81;98583.97;2061863;28;1590;-66
2024/01/18 02:25:18;;;;;;;;;;;;;;;20.14;37.83;98593.31;2052884;28;2018;-66
2024/01/18 02:26:20;;;;;;;;;;;;;;;20.14;37.92;98590.44;2054955;28;1716;-66
2024/01/18 02:27:21;;;;;;;;;;;;;;;20.14;37.77;98592.59;2057459;28;2041;-66
2024/01/18 02:28:23;;;;;;;;;;;;;;;20.14;37.85;98583.97;2058095;28;1977;-65
2024/01/18 02:29:24;;;;;;;;;;;;;;;20.16;37.80;98583.97;2054080;28;2099;-66
2024/01/18 02:30:25;;;;;;;;;;;;;;;20.14;37.84;98584.69;2058501;28;6137;-66
2024/01/18 02:31:27;;;;;;;;;;;;;;;20.16;37.83;98598.34;2058268;28;1896;-66
2024/01/18 02:32:28;;;;;;;;;;;;;;;20.16;37.77;98604.84;2061762;28;1770;-66
2024/01/18 02:33:30;;;;;;;;;;;;;;;20.17;37.81;98594.06;2059399;28;1964;-65
2024/01/18 02:34:31;;;;;;;;;;;;;;;20.17;37.83;98599.81;2060532;28;1690;-65
2024/01/18 02:35:34;;;;;;;;;;;;;;;20.18;37.84;98601.25;2053440;28;2111;-66
2024/01/18 02:36:35;;;;;;;;;;;;;;;20.17;37.71;98594.78;2051428;28;2029;-66
2024/01/18 02:37:37;;;;;;;;;;;;;;;20.17;37.74;98591.19;2060469;28;1861;-66
2024/01/18 02:38:38;;;;;;;;;;;;;;;20.16;37.76;98587.59;2060732;28;1849;-66
2024/01/18 02:39:39;;;;;;;;;;;;;;;20.16;37.77;98587.59;2058361;28;2006;-65
2024/01/18 02:40:41;;;;;;;;;;;;;;;20.17;37.80;98591.19;2054972;28;2073;-66
2024/01/18 02:41:42;;;;;;;;;;;;;;;20.16;37.74;98586.84;2059676;28;2572;-66
2024/01/18 02:42:44;;;;;;;;;;;;;;;20.16;37.90;98598.34;2056178;28;1887;-66
2024/01/18 02:43:45;;;;;;;;;;;;;;;20.15;37.90;98591.16;2057497;28;2013;-65
2024/01/18 02:44:46;;;;;;;;;;;;;;;20.16;37.85;98601.22;2062118;28;1759;-65
2024/01/18 02:45:48;;;;;;;;;;;;;;;20.15;37.85;98602.66;2058648;28;2104;-65
2024/01/18 02:46:49;;;;;;;;;;;;;;;20.15;37.80;98602.66;2062579;28;1675;-65
2024/01/18 02:47:51;;;;;;;;;;;;;;;20.14;37.93;98601.94;2059466;28;1763;-65
2024/01/18 02:48:52;;;;;;;;;;;;;;;20.15;37.89;98608.41;2060303;28;1981;-65
2024/01/18 02:49:55;;;;;;;;;;;;;;;20.14;37.92;98606.97;2059496;28;1825;-65
2024/01/18 02:50:56;;;;;;;;;;;;;;;20.14;37.82;98606.97;2061617;28;1835;-65
2024/01/18 02:51:58;;;;;;;;;;;;;;;20.13;37.80;98614.13;2058130;28;2019;-65
2024/01/18 02:52:59;;;;;;;;;;;;;;;20.13;37.86;98611.97;2059813;28;2085;-66
2024/01/18 02:54:00;;;;;;;;;;;;;;;20.13;37.86;98617.72;2059347;28;2110;-65
2024/01/18 02:55:02;;;;;;;;;;;;;;;20.14;37.74;98618.44;2053136;28;1749;-65
2024/01/18 02:56:03;;;;;;;;;;;;;;;20.13;37.81;98628.47;2052798;28;2076;-65
2024/01/18 02:57:05;;;;;;;;;;;;;;;20.13;37.88;98622.72;2063455;28;1739;-65
2024/01/18 02:58:06;;;;;;;;;;;;;;;20.12;37.85;98624.19;2054939;28;2014;-65
2024/01/18 02:59:08;;;;;;;;;;;;;;;20.12;37.82;98624.19;2062271;28;2328;-65
2024/01/18 03:00:09;;;;;;;;;;;;;;;20.12;37.91;98621.31;2059637;28;6070;-65
2024/01/18 03:01:11;;;;;;;;;;;;;;;20.11;37.83;98623.44;2058012;28;2042;-65
2024/01/18 03:02:12;;;;;;;;;;;;;;;20.11;37.93;98609.06;2058733;28;2143;-65
2024/01/18 03:03:14;;;;;;;;;;;;;;;20.11;37.83;98608.34;2058596;28;1982;-65
2024/01/18 03:04:15;;;;;;;;;;;;;;;20.11;37.69;98611.22;2056090;28;2073;-65
2024/01/18 03:05:17;;;;;;;;;;;;;;;20.11;37.80;98608.34;2054780;28;2127;-65
2024/01/18 03:06:19;;;;;;;;;;;;;;;20.10;37.73;98613.38;2061338;28;1788;-67
2024/01/18 03:07:20;;;;;;;;;;;;;;;20.12;37.83;98609.81;2059597;28;1722;-67
2024/01/18 03:08:21;;;;;;;;;;;;;;;20.11;37.78;98614.81;2060074;28;1894;-72
2024/01/18 03:09:23;;;;;;;;;;;;;;;20.12;37.83;98612.69;2057488;28;1914;-64
2024/01/18 03:10:24;;;;;;;;;;;;;;;20.12;37.82;98622.03;2057564;28;1892;-64
2024/01/18 03:11:26;;;;;;;;;;;;;;;20.13;37.91;98611.25;2060679;28;1793;-64
2024/01/18 03:12:27;;;;;;;;;;;;;;;20.13;37.80;98611.97;2058777;28;2108;-64
2024/01/18 03:13:29;;;;;;;;;;;;;;;20.14;37.58;98612.72;2059690;28;1940;-64
2024/01/18 03:14:31;;;;;;;;;;;;;;;20.13;37.71;98611.25;2058516;28;1838;-64
2024/01/18 03:15:36;;;;;;;;;;;;;;;20.13;37.84;98611.97;2058056;28;2086;-64
2024/01/18 03:16:42;;;;;;;;;;;;;;;20.14;37.73;98610.56;2060330;28;2208;-64
2024/01/18 03:17:44;;;;;;;;;;;;;;;20.15;37.68;98625.63;2060009;28;1957;-64
2024/01/18 03:18:46;;;;;;;;;;;;;;;20.14;37.64;98619.16;2057250;28;1716;-64
2024/01/18 03:19:48;;;;;;;;;;;;;;;20.15;37.75;98622.75;2054862;28;2133;-64
2024/01/18 03:20:49;;;;;;;;;;;;;;;20.14;37.65;98616.31;2060790;28;1847;-64
2024/01/18 03:21:51;;;;;;;;;;;;;;;20.13;37.66;98623.47;2057541;28;1970;-64
2024/01/18 03:22:53;;;;;;;;;;;;;;;20.14;37.80;98619.16;2058169;28;1659;-64
2024/01/18 03:23:55;;;;;;;;;;;;;;;20.14;37.67;98629.94;2058373;28;1950;-64
2024/01/18 03:24:56;;;;;;;;;;;;;;;20.15;37.65;98625.63;2058780;28;2080;-64
2024/01/18 03:25:57;;;;;;;;;;;;;;;20.14;37.81;98624.19;2057179;28;2002;-64
2024/01/18 03:26:59;;;;;;;;;;;;;;;20.13;37.83;98631.34;2056199;28;1938;-64
2024/01/18 03:28:00;;;;;;;;;;;;;;;20.12;37.85;98630.63;2064748;28;2028;-64
2024/01/18 03:29:02;;;;;;;;;;;;;;;20.12;37.95;98638.53;2060138;28;2159;-64
2024/01/18 03:30:03;;;;;;;;;;;;;;;20.13;37.73;98645.72;2058048;28;6110;-64
2024/01/18 03:31:05;;;;;;;;;;;;;;;20.12;37.83;98650.75;2062510;28;2513;-64
2024/01/18 03:32:06;;;;;;;;;;;;;;;20.11;37.77;98642.81;2059164;28;2059;-64
2024/01/18 03:33:07;;;;;;;;;;;;;;;20.11;37.81;98637.06;2059445;28;2064;-64
2024/01/18 03:34:09;;;;;;;;;;;;;;;20.11;37.74;98639.94;2056933;28;2120;-64
2024/01/18 03:35:11;;;;;;;;;;;;;;;20.09;37.93;98647.13;2056769;28;2084;-64
2024/01/18 03:36:12;;;;;;;;;;;;;;;20.08;37.87;98645.66;2060777;28;1949;-64
2024/01/18 03:37:13;;;;;;;;;;;;;;;20.09;37.86;98646.41;2058727;28;1689;-65
2024/01/18 03:38:15;;;;;;;;;;;;;;;20.08;37.70;98654.28;2057704;28;2282;-65
2024/01/18 03:39:16;;;;;;;;;;;;;;;20.08;37.77;98642.06;2056785;28;1687;-65
2024/01/18 03:40:18;;;;;;;;;;;;;;;20.07;37.72;98655.00;2060208;28;1933;-65
2024/01/18 03:41:19;;;;;;;;;;;;;;;20.08;37.68;98656.44;2056560;28;2064;-64
2024/01/18 03:42:21;;;;;;;;;;;;;;;20.07;37.76;98661.47;2057826;28;1997;-64
2024/01/18 03:43:23;;;;;;;;;;;;;;;20.08;37.66;98667.94;2056292;28;1953;-64
2024/01/18 03:44:24;;;;;;;;;;;;;;;20.06;37.61;98665.75;2061968;28;1806;-64
2024/01/18 03:45:26;;;;;;;;;;;;;;;20.07;37.64;98675.84;2055113;28;2122;-65
2024/01/18 03:46:27;;;;;;;;;;;;;;;20.06;37.79;98671.50;2061701;28;1853;-65
2024/01/18 03:47:29;;;;;;;;;;;;;;;20.08;37.71;98668.66;2058762;28;1802;-65
2024/01/18 03:48:30;;;;;;;;;;;;;;;20.07;37.70;98664.34;2060047;28;2040;-65
2024/01/18 03:49:32;;;;;;;;;;;;;;;20.08;37.70;98662.19;2057747;28;2014;-65
2024/01/18 03:50:34;;;;;;;;;;;;;;;20.09;37.86;98672.25;2057743;28;2082;-64
2024/01/18 03:51:35;;;;;;;;;;;;;;;20.08;37.64;98674.41;2061313;28;1703;-64
2024/01/18 03:52:37;;;;;;;;;;;;;;;20.08;37.74;98667.94;2057223;28;2057;-64
2024/01/18 03:53:41;;;;;;;;;;;;;;;20.09;37.68;98670.13;2056064;28;2100;-64
2024/01/18 03:54:42;;;;;;;;;;;;;;;20.11;37.69;98674.44;2056775;28;1881;-65
2024/01/18 03:55:44;;;;;;;;;;;;;;;20.11;37.66;98678.00;2061498;28;1711;-64
2024/01/18 03:56:45;;;;;;;;;;;;;;;20.12;37.69;98667.28;2057887;28;2199;-64
2024/01/18 03:57:47;;;;;;;;;;;;;;;20.12;37.68;98673.00;2059924;28;1981;-64
2024/01/18 03:58:48;;;;;;;;;;;;;;;20.12;37.60;98670.84;2061170;28;1807;-64
2024/01/18 03:59:49;;;;;;;;;;;;;;;20.13;37.63;98671.56;2057090;28;2024;-64
2024/01/18 04:00:51;;;;;;;;;;;;;;;20.14;37.58;98670.16;2058083;28;6125;-64
2024/01/18 04:01:53;;;;;;;;;;;;;;;20.14;37.57;98678.78;2057525;28;1767;-65
2024/01/18 04:02:54;;;;;;;;;;;;;;;20.14;37.82;98681.66;2061166;28;2092;-65
2024/01/18 04:03:55;;;;;;;;;;;;;;;20.15;37.61;98683.81;2061071;28;1767;-65
2024/01/18 04:04:57;;;;;;;;;;;;;;;20.14;37.60;98684.53;2059151;28;2108;-65
2024/01/18 04:05:58;;;;;;;;;;;;;;;20.15;37.65;98683.09;2059980;28;1926;-65
2024/01/18 04:07:00;;;;;;;;;;;;;;;20.15;37.67;98692.44;2062423;28;1726;-65
2024/01/18 04:08:01;;;;;;;;;;;;;;;20.15;37.67;98694.59;2062819;28;1945;-65
2024/01/18 04:09:05;;;;;;;;;;;;;;;20.16;37.70;98685.28;2058224;28;2021;-65
2024/01/18 04:10:07;;;;;;;;;;;;;;;20.17;37.77;98691.75;2060061;28;1914;-65
2024/01/18 04:11:09;;;;;;;;;;;;;;;20.17;37.67;98691.75;2059908;28;2021;-64
2024/01/18 04:12:10;;;;;;;;;;;;;;;20.17;37.71;98691.75;2060010;28;2208;-64
2024/01/18 04:13:12;;;;;;;;;;;;;;;20.17;37.64;98680.97;2061020;28;1845;-64
2024/01/18 04:14:15;;;;;;;;;;;;;;;20.18;37.84;98691.06;2062094;28;1800;-65
2024/01/18 04:15:16;;;;;;;;;;;;;;;20.17;37.67;98697.50;2058405;28;2093;-65
2024/01/18 04:16:18;;;;;;;;;;;;;;;20.18;37.67;98693.94;2061449;28;1742;-64
2024/01/18 04:17:19;;;;;;;;;;;;;;;20.19;37.69;98697.53;2060953;28;2393;-64
2024/01/18 04:18:21;;;;;;;;;;;;;;;20.18;37.68;98693.94;2060162;28;2126;-64
2024/01/18 04:19:22;;;;;;;;;;;;;;;20.20;37.67;98698.97;2060895;28;2176;-64
2024/01/18 04:20:27;;;;;;;;;;;;;;;20.20;37.74;98707.56;2057771;28;2112;-64
2024/01/18 04:21:28;;;;;;;;;;;;;;;20.21;37.75;98694.69;2063218;28;2155;-64
2024/01/18 04:22:30;;;;;;;;;;;;;;;20.20;37.78;98690.34;2056584;28;2108;-64
2024/01/18 04:23:31;;;;;;;;;;;;;;;20.21;37.79;98688.94;2061228;28;2096;-64
2024/01/18 04:24:33;;;;;;;;;;;;;;;20.22;37.64;98693.25;2059576;28;2002;-64
2024/01/18 04:25:34;;;;;;;;;;;;;;;20.21;37.65;98698.28;2060123;28;1942;-64
2024/01/18 04:26:36;;;;;;;;;;;;;;;20.22;37.68;98699.72;2059989;28;2230;-64
2024/01/18 04:27:37;;;;;;;;;;;;;;;20.23;37.68;98706.19;2061165;28;2097;-64
2024/01/18 04:28:39;;;;;;;;;;;;;;;20.23;37.63;98709.06;2058719;28;1736;-64
2024/01/18 04:29:41;;;;;;;;;;;;;;;20.23;37.87;98706.91;2062733;28;2082;-64
2024/01/18 04:30:42;;;;;;;;;;;;;;;20.24;37.82;98710.50;2059679;28;6107;-64
2024/01/18 04:31:44;;;;;;;;;;;;;;;20.24;37.68;98713.38;2058252;28;2124;-64
2024/01/18 04:32:45;;;;;;;;;;;;;;;20.23;37.75;98712.66;2062156;28;1640;-64
2024/01/18 04:33:47;;;;;;;;;;;;;;;20.24;37.64;98713.38;2064951;28;1704;-64
2024/01/18 04:34:48;;;;;;;;;;;;;;;20.23;37.67;98706.91;2061880;28;2132;-64
2024/01/18 04:35:50;;;;;;;;;;;;;;;20.23;37.74;98706.91;2060584;28;1785;-64
2024/01/18 04:36:51;;;;;;;;;;;;;;;20.23;37.68;98700.44;2063226;28;1861;-64
2024/01/18 04:37:53;;;;;;;;;;;;;;;20.22;37.72;98693.25;2060723;28;2159;-64
2024/01/18 04:38:54;;;;;;;;;;;;;;;20.22;37.76;98699.72;2060497;28;1911;-64
2024/01/18 04:39:55;;;;;;;;;;;;;;;20.21;37.89;98703.28;2060239;28;1786;-64
2024/01/18 04:40:57;;;;;;;;;;;;;;;20.22;37.81;98707.59;2057073;28;1954;-64
2024/01/18 04:41:58;;;;;;;;;;;;;;;20.22;37.74;98704.75;2051700;28;2106;-64
2024/01/18 04:43:00;;;;;;;;;;;;;;;20.21;37.77;98714.78;2062525;28;1580;-63
2024/01/18 04:44:01;;;;;;;;;;;;;;;20.21;37.75;98711.91;2064467;28;1572;-64
2024/01/18 04:45:03;;;;;;;;;;;;;;;20.19;37.79;98718.34;2061321;28;1675;-64
2024/01/18 04:46:04;;;;;;;;;;;;;;;20.19;37.79;98714.75;2061057;28;2200;-64
2024/01/18 04:47:06;;;;;;;;;;;;;;;20.19;37.76;98712.59;2059081;28;1626;-64
2024/01/18 04:48:07;;;;;;;;;;;;;;;20.20;37.79;98707.56;2066148;28;1690;-64
2024/01/18 04:49:09;;;;;;;;;;;;;;;20.20;37.93;98707.56;2060857;28;2054;-64
2024/01/18 04:50:11;;;;;;;;;;;;;;;20.19;37.74;98706.16;2057137;28;2109;-64
2024/01/18 04:51:12;;;;;;;;;;;;;;;20.19;37.96;98706.88;2064999;28;1824;-64
2024/01/18 04:52:14;;;;;;;;;;;;;;;20.20;37.93;98714.06;2058271;28;2181;-64
2024/01/18 04:53:16;;;;;;;;;;;;;;;20.20;37.92;98707.56;2062595;28;1702;-64
2024/01/18 04:54:17;;;;;;;;;;;;;;;20.20;37.93;98710.44;2062757;28;2145;-64
2024/01/18 04:55:19;;;;;;;;;;;;;;;20.20;37.89;98705.44;2059325;28;2076;-64
2024/01/18 04:56:20;;;;;;;;;;;;;;;20.21;37.89;98711.91;2061098;28;2393;-64
2024/01/18 04:57:22;;;;;;;;;;;;;;;20.21;37.77;98709.75;2059790;28;2161;-64
2024/01/18 04:58:23;;;;;;;;;;;;;;;20.22;37.95;98705.44;2060364;28;1587;-64
2024/01/18 04:59:24;;;;;;;;;;;;;;;20.22;37.90;98699.00;2060044;28;2307;-64
2024/01/18 05:00:26;;;;;;;;;;;;;;;20.20;37.81;98711.19;2059673;28;6200;-64
2024/01/18 05:01:27;;;;;;;;;;;;;;;20.22;37.86;98699.72;2059926;28;2280;-64
2024/01/18 05:02:29;;;;;;;;;;;;;;;20.22;37.74;98704.75;2059986;28;2048;-64
2024/01/18 05:03:31;;;;;;;;;;;;;;;20.24;37.86;98707.63;2061956;28;1687;-64
2024/01/18 05:04:33;;;;;;;;;;;;;;;20.23;37.76;98704.03;2060354;28;2267;-64
2024/01/18 05:05:35;;;;;;;;;;;;;;;20.22;37.70;98704.75;2056988;28;2077;-64
2024/01/18 05:06:37;;;;;;;;;;;;;;;20.23;37.91;98698.28;2059865;28;2208;-64
2024/01/18 05:07:41;;;;;;;;;;;;;;;20.23;37.79;98700.44;2057093;28;2243;-64
2024/01/18 05:08:43;;;;;;;;;;;;;;;20.24;37.88;98707.63;2058720;28;2100;-64
2024/01/18 05:09:45;;;;;;;;;;;;;;;20.24;37.74;98713.38;2058122;28;1639;-64
2024/01/18 05:10:46;;;;;;;;;;;;;;;20.23;37.91;98711.94;2059811;28;1977;-64
2024/01/18 05:11:47;;;;;;;;;;;;;;;20.25;37.67;98714.84;2059954;28;2116;-64
2024/01/18 05:12:49;;;;;;;;;;;;;;;20.24;37.80;98725.59;2060646;28;1928;-64
2024/01/18 05:13:50;;;;;;;;;;;;;;;20.26;37.71;98724.91;2061009;28;1582;-64
2024/01/18 05:14:52;;;;;;;;;;;;;;;20.25;37.84;98721.31;2058213;28;2207;-64
2024/01/18 05:15:53;;;;;;;;;;;;;;;20.27;37.77;98726.34;2059327;28;1924;-64
2024/01/18 05:17:03;;;;;;;;;;;;;;;20.26;37.73;98722.75;2061585;28;2033;-65
2024/01/18 05:18:06;;;;;;;;;;;;;;;20.27;37.82;98717.72;2060499;28;1610;-65
2024/01/18 05:19:08;;;;;;;;;;;;;;;20.27;37.91;98729.22;2061067;28;1629;-65
2024/01/18 05:20:10;;;;;;;;;;;;;;;20.27;37.79;98723.47;2060471;28;2102;-64
2024/01/18 05:21:11;;;;;;;;;;;;;;;20.27;37.96;98723.47;2061058;28;2085;-64
2024/01/18 05:22:13;;;;;;;;;;;;;;;20.28;37.76;98722.06;2060904;28;1963;-64
2024/01/18 05:23:14;;;;;;;;;;;;;;;20.28;37.86;98713.44;2058172;28;1868;-64
2024/01/18 05:24:16;;;;;;;;;;;;;;;20.28;37.74;98719.19;2060318;28;1646;-64
2024/01/18 05:25:17;;;;;;;;;;;;;;;20.27;37.72;98709.84;2058498;28;2466;-64
2024/01/18 05:26:18;;;;;;;;;;;;;;;20.27;37.81;98706.97;2062408;28;1650;-64